Pagrindinis puslapis
METAR-TAF:

METAR-TAF

Oro uostai :

Belgradas, Serbija

platuma: 44-49N, ilguma: 020-17E, Aukštis: 96 m

Dabartinis oras

Ataskaita buvo paskelbta 14 minutes, ne 18:00 UTC
Vėjas 6 kt iš Pietų/Pietvakarių
Temperatūra 15°C
Drėgmė 88%
Slėgis 1015 hPa
Matomumas 10 km arba daugiau
Mažai debesys ne aukštis 4600 ft

METAR: LYBE 301800Z 21006KT 9999 FEW046 15/13 Q1015 NOSIG

Laikas: 20:14 (18:14 UTC)

Prognozė

Ataskaita buvo paskelbta 1 valandą ir 14 minutes, ne 17:00 UTC
Prognozė galioja nuo 30 metu 18 UTC su 31 metu 18 UTC
Vėjas 6 kt iš Pietvakarių
Matomumas 10 km arba daugiau
Išsisklaidę debesys ne aukštis 4000 ft
Tapsmas
nuo 31 metu 05 UTC su 31 metu 07 UTC
Vėjas 14 kt iš Vakarų/Šiaurės Vakarų
Laikinai
nuo 31 metu 10 UTC su 31 metu 13 UTC
Išsisklaidę debesys ne aukštis 3300 ft, aukštai iškilę kamuoliniai debesys.
lietus
Tapsmas
nuo 31 metu 16 UTC su 31 metu 18 UTC
Vėjas 6 kt iš Pietvakarių

TAF: LYBE 301700Z 3018/3118 22006KT 9999 SCT040 TX19/3113Z TN08/3103Z BECMG 3105/3107 29014KT TEMPO 3110/3113 SHRA SCT033TCU BECMG 3116/3118 22006KT

Orai ataskaitas ir orų prognozės (METAR, TAF).

turimą stotys yra geltonos ir raudonos taškus žemėlapyje.

Perkelti pele per norėdami pamatyti stoties vardą.

Tada spustelėkite, norėdami matyti oro stebėjimo ir prognozės.

Norėdami pakeisti žemėlapį: spustelėkite ant žalios mygtukų su juodo kryžiaus žemyn,; žalią mygtuką su brūkšneliu, jei norite nutolinti; arba žalių rodyklių gretimoms žemėlapius.


METAR-TAF: